Time;durP1;ratioP1;P1;durP2;ratioP2;P2;SDS_P1;SDS_P2;PMS_P1;PMS_P2;Temp;Humidity;BMP_temperature;BMP_pressure;BME280_temperature;BME280_humidity;BME280_pressure;Samples;Min_cycle;Max_cycle;Signal;HPM_P1;HPM_P2
2023/12/17 00:00:20;;;;;;;30.92;10.85;;;;;;;8.93;100.00;103244.72;6228870;28;20053;-74
2023/12/17 00:03:22;;;;;;;24.30;11.05;;;;;;;8.95;100.00;103252.56;6228447;28;20060;-76
2023/12/17 00:06:23;;;;;;;26.65;11.15;;;;;;;8.92;100.00;103245.63;6228387;28;20145;-75
2023/12/17 00:09:25;;;;;;;27.00;9.95;;;;;;;8.89;100.00;103253.50;6228507;28;20061;-75
2023/12/17 00:12:27;;;;;;;24.20;10.13;;;;;;;8.92;100.00;103256.09;6228113;28;20050;-75
2023/12/17 00:15:29;;;;;;;25.13;9.40;;;;;;;8.99;100.00;103251.69;6228134;28;20056;-75
2023/12/17 00:18:30;;;;;;;25.25;10.30;;;;;;;9.02;100.00;103252.53;6228447;28;20046;-75
2023/12/17 00:21:32;;;;;;;23.77;10.23;;;;;;;8.96;100.00;103249.09;6228490;28;20060;-74
2023/12/17 00:24:33;;;;;;;26.75;11.65;;;;;;;8.90;100.00;103247.34;6227935;28;20061;-75
2023/12/17 00:27:36;;;;;;;21.38;9.48;;;;;;;8.92;100.00;103252.63;6228008;28;20046;-75
2023/12/17 00:30:37;;;;;;;20.08;9.95;;;;;;;8.91;100.00;103245.63;6227874;28;20100;-75
2023/12/17 00:33:38;;;;;;;25.40;9.13;;;;;;;8.99;100.00;103244.66;6224206;28;20467;-75
2023/12/17 00:36:40;;;;;;;24.00;9.73;;;;;;;8.93;100.00;103244.72;6227584;28;20057;-74
2023/12/17 00:39:41;;;;;;;24.30;10.18;;;;;;;8.94;100.00;103248.22;6219757;28;20049;-75
2023/12/17 00:42:44;;;;;;;25.33;8.57;;;;;;;8.95;100.00;103239.47;6227212;28;20079;-75
2023/12/17 00:45:46;;;;;;;25.17;9.13;;;;;;;9.03;100.00;103237.66;6227403;28;20049;-75
2023/12/17 00:48:47;;;;;;;23.52;8.95;;;;;;;9.00;100.00;103243.81;6227487;28;20347;-74
2023/12/17 00:51:48;;;;;;;26.52;10.18;;;;;;;8.94;100.00;103238.59;6227712;28;20049;-74
2023/12/17 00:54:50;;;;;;;25.58;8.73;;;;;;;8.99;100.00;103238.56;6227272;28;20145;-75
2023/12/17 00:57:53;;;;;;;26.55;8.57;;;;;;;8.92;100.00;103224.63;6227616;28;20053;-75
2023/12/17 01:00:55;;;;;;;24.00;8.68;;;;;;;8.92;100.00;103222.00;6227180;28;20438;-75
2023/12/17 01:03:56;;;;;;;20.13;8.40;;;;;;;9.00;100.00;103211.47;6226893;28;20065;-76
2023/12/17 01:06:57;;;;;;;25.50;8.90;;;;;;;8.97;100.00;103214.97;6227153;28;20054;-75
2023/12/17 01:09:59;;;;;;;19.88;8.02;;;;;;;8.96;100.00;103208.00;6227059;28;20050;-75
2023/12/17 01:13:01;;;;;;;22.25;8.88;;;;;;;9.00;100.00;103207.09;6227103;28;20046;-75
2023/12/17 01:16:04;;;;;;;20.58;8.77;;;;;;;9.03;100.00;103193.94;6226870;28;20049;-75
2023/12/17 01:19:06;;;;;;;22.13;8.70;;;;;;;9.07;100.00;103195.66;6227050;28;20490;-75
2023/12/17 01:22:07;;;;;;;23.35;8.77;;;;;;;9.08;100.00;103191.28;6226711;28;20076;-74
2023/12/17 01:25:09;;;;;;;17.00;8.02;;;;;;;9.05;100.00;103188.69;6226827;28;20054;-74
2023/12/17 01:28:11;;;;;;;20.48;8.75;;;;;;;9.14;100.00;103202.63;6226701;28;20061;-74
2023/12/17 01:31:13;;;;;;;18.52;8.15;;;;;;;9.14;100.00;103205.25;6226838;28;20050;-74
2023/12/17 01:34:14;;;;;;;18.27;7.93;;;;;;;9.12;100.00;103214.00;6226487;28;20457;-74
2023/12/17 01:37:16;;;;;;;23.23;7.78;;;;;;;9.12;100.00;103208.75;6215116;28;20332;-74
2023/12/17 01:40:17;;;;;;;18.55;8.30;;;;;;;9.14;100.00;103197.38;6225688;28;20038;-75
2023/12/17 01:43:20;;;;;;;19.23;8.23;;;;;;;9.09;100.00;103209.66;6225243;28;20061;-74
2023/12/17 01:46:22;;;;;;;18.98;7.45;;;;;;;9.12;100.00;103200.88;6225670;28;20050;-74
2023/12/17 01:49:23;;;;;;;21.02;8.65;;;;;;;9.15;100.00;103201.72;6226044;28;20058;-74
2023/12/17 01:52:25;;;;;;;20.73;7.78;;;;;;;9.16;100.00;103207.84;6226304;28;20465;-74
2023/12/17 01:55:28;;;;;;;23.55;7.55;;;;;;;9.18;100.00;103207.84;6226037;28;20053;-74
2023/12/17 01:58:31;;;;;;;17.42;7.35;;;;;;;9.17;100.00;103217.44;6226029;28;20350;-75
2023/12/17 02:01:32;;;;;;;20.83;8.13;;;;;;;9.23;100.00;103213.94;6226097;28;20454;-75
2023/12/17 02:04:34;;;;;;;15.27;6.65;;;;;;;9.33;100.00;103220.84;6225632;28;20058;-75
2023/12/17 02:07:35;;;;;;;17.58;7.28;;;;;;;9.27;100.00;103200.78;6225220;28;20057;-74
2023/12/17 02:10:37;;;;;;;15.75;6.80;;;;;;;9.31;100.00;103205.13;6225640;28;20053;-74
2023/12/17 02:13:39;;;;;;;17.83;6.82;;;;;;;9.35;100.00;103200.69;6225642;28;20057;-74
2023/12/17 02:16:41;;;;;;;21.45;7.85;;;;;;;9.32;100.00;103198.09;6225987;28;20060;-73
2023/12/17 02:19:42;;;;;;;19.80;8.23;;;;;;;9.34;100.00;103199.81;6225973;28;20049;-75
2023/12/17 02:22:44;;;;;;;17.27;7.90;;;;;;;9.33;100.00;103191.97;6225483;28;20050;-74
2023/12/17 02:25:47;;;;;;;18.85;7.65;;;;;;;9.37;100.00;103198.94;6225676;28;20125;-74
2023/12/17 02:28:48;;;;;;;17.23;6.70;;;;;;;9.40;100.00;103191.00;6225717;28;20054;-74
2023/12/17 02:31:50;;;;;;;16.75;7.22;;;;;;;9.38;100.00;103192.78;6225941;28;20061;-74
2023/12/17 02:34:52;;;;;;;17.25;6.97;;;;;;;9.36;100.00;103184.06;6225574;28;20073;-74
2023/12/17 02:37:54;;;;;;;13.10;7.05;;;;;;;9.38;100.00;103188.41;6225640;28;20450;-74
2023/12/17 02:40:56;;;;;;;19.75;6.85;;;;;;;9.43;100.00;103185.75;6225655;28;20050;-74
2023/12/17 02:43:58;;;;;;;16.33;7.32;;;;;;;9.41;100.00;103190.16;6251421;22;20460;-71
2023/12/17 02:47:00;;;;;;;16.10;7.00;;;;;;;9.45;100.00;103193.59;6249861;28;20049;-71
2023/12/17 02:50:02;;;;;;;14.55;6.50;;;;;;;9.44;100.00;103184.84;6250124;28;20076;-71
2023/12/17 02:53:04;;;;;;;13.30;6.45;;;;;;;9.49;100.00;103172.53;6250003;28;20094;-70
2023/12/17 02:56:08;;;;;;;14.65;6.55;;;;;;;9.40;100.00;103170.00;6249672;28;20053;-70
2023/12/17 02:59:10;;;;;;;15.50;6.82;;;;;;;9.42;100.00;103180.50;6253443;28;20049;-70
2023/12/17 03:02:12;;;;;;;14.98;6.40;;;;;;;9.36;100.00;103182.31;6254658;28;20053;-70
2023/12/17 03:05:13;;;;;;;14.70;6.80;;;;;;;9.40;100.00;103159.50;6254668;28;20079;-70
2023/12/17 03:08:15;;;;;;;15.25;6.70;;;;;;;9.40;100.00;103170.91;6254423;28;20060;-70
2023/12/17 03:11:17;;;;;;;16.10;6.55;;;;;;;9.46;100.00;103159.47;6254377;28;20569;-71
2023/12/17 03:14:20;;;;;;;14.88;6.30;;;;;;;9.43;100.00;103180.50;6254377;28;20053;-70
2023/12/17 03:17:21;;;;;;;12.10;6.82;;;;;;;9.42;100.00;103176.13;6254311;28;20108;-69
2023/12/17 03:20:22;;;;;;;13.55;6.05;;;;;;;9.48;100.00;103168.19;6254383;28;20053;-71
2023/12/17 03:23:24;;;;;;;14.15;6.80;;;;;;;9.48;100.00;103167.31;6253963;28;20365;-70
2023/12/17 03:26:27;;;;;;;12.15;6.00;;;;;;;9.50;100.00;103170.81;6254110;28;20053;-70
2023/12/17 03:29:29;;;;;;;13.57;6.88;;;;;;;9.50;100.00;103158.56;6254072;28;20195;-71
2023/12/17 03:32:31;;;;;;;10.52;5.30;;;;;;;9.51;100.00;103147.16;6254206;28;20049;-71
2023/12/17 03:35:32;;;;;;;11.15;6.55;;;;;;;9.48;100.00;103149.81;6253749;28;20057;-69
2023/12/17 03:38:33;;;;;;;13.48;6.03;;;;;;;9.50;100.00;103152.44;6253272;28;20049;-70
2023/12/17 03:41:36;;;;;;;14.02;6.28;;;;;;;9.49;100.00;103153.31;6245357;28;20049;-71
2023/12/17 03:44:38;;;;;;;13.45;6.40;;;;;;;9.49;100.00;103151.56;6245862;28;20061;-71
2023/12/17 03:47:48;;;;;;;12.65;6.60;;;;;;;9.49;100.00;103154.19;6249801;28;20060;-71
2023/12/17 03:50:50;;;;;;;11.00;5.65;;;;;;;9.33;100.00;103156.09;6248872;28;20037;-68
2023/12/17 03:53:51;;;;;;;15.73;7.38;;;;;;;9.25;100.00;103160.53;6229825;28;20060;-68
2023/12/17 03:56:54;;;;;;;12.40;5.47;;;;;;;9.27;100.00;103158.78;6242210;28;20107;-68
2023/12/17 03:59:55;;;;;;;13.82;6.75;;;;;;;9.27;100.00;103148.28;6250410;28;20045;-71
2023/12/17 04:02:56;;;;;;;10.23;5.75;;;;;;;9.29;100.00;103146.50;6244451;28;20455;-69
2023/12/17 04:05:59;;;;;;;18.05;6.53;;;;;;;9.27;100.00;103156.16;6229913;28;20049;-71
2023/12/17 04:09:00;;;;;;;11.52;6.13;;;;;;;9.28;100.00;103146.53;6252964;28;20049;-69
2023/12/17 04:12:03;;;;;;;11.18;6.30;;;;;;;9.29;100.00;103141.25;6252218;28;20044;-69
2023/12/17 04:15:06;;;;;;;10.85;6.00;;;;;;;9.25;100.00;103138.69;6243747;28;20042;-70
2023/12/17 04:18:07;;;;;;;11.98;6.93;;;;;;;9.29;100.00;103136.00;6242337;28;20045;-69
2023/12/17 04:21:08;;;;;;;11.57;5.53;;;;;;;9.25;100.00;103121.19;6241877;28;20353;-69
2023/12/17 04:24:10;;;;;;;14.32;6.10;;;;;;;9.26;100.00;103130.78;6247446;28;20057;-68
2023/12/17 04:27:13;;;;;;;13.10;6.32;;;;;;;9.27;100.00;103114.19;6252646;28;20062;-70
2023/12/17 04:30:14;;;;;;;14.30;6.13;;;;;;;9.26;100.00;103107.16;6252629;28;20068;-69
2023/12/17 04:33:16;;;;;;;11.23;5.88;;;;;;;9.33;100.00;103102.75;6252581;28;20056;-70
2023/12/17 04:36:17;;;;;;;10.98;5.43;;;;;;;9.27;100.00;103106.31;6231543;28;20083;-72
2023/12/17 04:39:19;;;;;;;12.80;6.63;;;;;;;9.19;100.00;103108.13;6227808;28;20054;-69
2023/12/17 04:42:22;;;;;;;10.45;6.40;;;;;;;9.31;100.00;103115.00;6227760;28;20049;-69
2023/12/17 04:45:23;;;;;;;14.00;6.47;;;;;;;9.32;100.00;103124.63;6226780;28;20057;-68
2023/12/17 04:48:25;;;;;;;10.95;5.75;;;;;;;9.35;100.00;103116.72;6227857;28;20046;-70
2023/12/17 04:51:26;;;;;;;9.23;5.40;;;;;;;9.30;100.00;103110.63;6227399;28;20501;-70
2023/12/17 04:54:28;;;;;;;13.07;5.70;;;;;;;9.31;100.00;103108.03;6227248;28;20054;-69
2023/12/17 04:57:30;;;;;;;14.50;7.07;;;;;;;9.28;100.00;103122.91;6244653;28;20049;-71
2023/12/17 05:00:32;;;;;;;9.77;6.00;;;;;;;9.26;100.00;103122.91;6252202;28;20050;-70
2023/12/17 05:03:33;;;;;;;10.95;5.60;;;;;;;9.32;100.00;103112.38;6251103;28;20335;-69
2023/12/17 05:06:34;;;;;;;10.98;6.00;;;;;;;9.38;100.00;103127.19;6251216;28;20064;-70
2023/12/17 05:09:36;;;;;;;10.98;5.75;;;;;;;9.42;100.00;103130.66;6252000;28;20045;-70
2023/12/17 05:12:38;;;;;;;15.73;6.05;;;;;;;9.36;100.00;103123.72;6251057;28;20052;-69
2023/12/17 05:15:40;;;;;;;10.68;5.57;;;;;;;9.35;100.00;103124.56;6251217;28;20168;-70
2023/12/17 05:18:41;;;;;;;12.95;5.45;;;;;;;9.37;100.00;103115.81;6251565;28;20054;-70
2023/12/17 05:21:42;;;;;;;11.43;6.22;;;;;;;9.30;100.00;103121.13;6250504;28;20355;-70
2023/12/17 05:24:44;;;;;;;10.45;5.90;;;;;;;9.30;100.00;103111.50;6250776;28;20061;-70
2023/12/17 05:27:47;;;;;;;16.85;6.07;;;;;;;9.31;100.00;103128.13;6251333;28;20049;-70
2023/12/17 05:30:48;;;;;;;9.68;5.70;;;;;;;9.29;100.00;103133.38;6251404;28;20041;-70
2023/12/17 05:33:50;;;;;;;11.93;5.13;;;;;;;9.27;100.00;103132.56;6250712;28;20472;-70
2023/12/17 05:36:51;;;;;;;11.88;5.53;;;;;;;9.26;100.00;103128.16;6250991;28;20449;-70
2023/12/17 05:39:52;;;;;;;11.50;5.70;;;;;;;9.27;100.00;103124.69;6242455;28;20052;-70
2023/12/17 05:42:55;;;;;;;11.80;5.85;;;;;;;9.30;100.00;103142.13;6250873;28;20057;-70
2023/12/17 05:45:56;;;;;;;8.68;5.15;;;;;;;9.28;100.00;103138.66;6241658;28;20053;-70
2023/12/17 05:48:58;;;;;;;13.35;5.93;;;;;;;9.24;100.00;103137.81;6242551;28;20109;-70
2023/12/17 05:51:59;;;;;;;12.68;5.30;;;;;;;9.27;100.00;103139.56;6250562;28;20453;-70
2023/12/17 05:55:00;;;;;;;12.20;5.65;;;;;;;9.33;100.00;103136.84;6250152;28;20541;-70
2023/12/17 05:58:03;;;;;;;11.90;5.63;;;;;;;9.30;100.00;103136.88;6250795;28;20049;-70
2023/12/17 06:01:05;;;;;;;9.00;5.45;;;;;;;9.27;100.00;103140.41;6250745;28;20053;-71
2023/12/17 06:04:06;;;;;;;11.70;5.80;;;;;;;9.28;100.00;103126.41;6239089;28;20350;-71
2023/12/17 06:07:08;;;;;;;10.75;6.00;;;;;;;9.28;100.00;103123.78;6226138;28;20061;-69
2023/12/17 06:10:09;;;;;;;9.10;5.25;;;;;;;9.26;100.00;103122.91;6226190;28;20045;-69
2023/12/17 06:13:12;;;;;;;11.40;5.35;;;;;;;9.20;100.00;103119.50;6225771;28;20050;-69
2023/12/17 06:16:14;;;;;;;8.82;4.93;;;;;;;9.21;100.00;103136.97;6225547;28;20148;-71
2023/12/17 06:19:16;;;;;;;11.18;5.32;;;;;;;9.19;100.00;103137.00;6229535;28;20053;-71
2023/12/17 06:22:17;;;;;;;10.52;5.25;;;;;;;9.18;100.00;103142.25;6241902;28;20438;-70
2023/12/17 06:25:18;;;;;;;10.23;5.30;;;;;;;9.23;100.00;103143.09;6249841;28;20056;-71
2023/12/17 06:28:22;;;;;;;9.85;5.05;;;;;;;9.19;100.00;103141.38;6250637;28;20123;-71
2023/12/17 06:31:24;;;;;;;14.63;5.63;;;;;;;9.26;100.00;103146.53;6250726;28;20049;-69
2023/12/17 06:34:26;;;;;;;9.20;5.10;;;;;;;9.26;100.00;103150.91;6254865;28;20430;-69
2023/12/17 06:37:27;;;;;;;12.65;5.75;;;;;;;9.22;100.00;103164.94;6254823;28;20454;-69
2023/12/17 06:40:28;;;;;;;13.57;5.40;;;;;;;9.19;100.00;103160.59;6255429;28;20046;-69
2023/12/17 06:43:31;;;;;;;9.88;5.03;;;;;;;9.23;100.00;103170.19;6254643;28;20049;-69
2023/12/17 06:46:32;;;;;;;9.77;5.18;;;;;;;9.17;100.00;103164.09;6254838;28;20061;-69
2023/12/17 06:49:37;;;;;;;7.93;4.55;;;;;;;9.19;100.00;103163.22;6255275;28;20064;-71
2023/12/17 06:52:38;;;;;;;9.05;5.15;;;;;;;9.19;100.00;103149.25;6254680;28;20048;-69
2023/12/17 06:55:40;;;;;;;10.77;5.75;;;;;;;9.19;100.00;103154.50;6254499;28;20045;-70
2023/12/17 06:58:42;;;;;;;10.65;4.50;;;;;;;9.15;100.00;103157.13;6254898;28;20049;-68
2023/12/17 07:01:44;;;;;;;9.93;5.07;;;;;;;9.09;100.00;103154.56;6254675;28;20054;-71
2023/12/17 07:04:45;;;;;;;6.55;4.35;;;;;;;9.13;100.00;103151.03;6254178;28;20053;-71
2023/12/17 07:07:47;;;;;;;9.05;4.68;;;;;;;9.12;100.00;103143.16;6254605;28;20143;-71
2023/12/17 07:10:48;;;;;;;11.82;4.00;;;;;;;9.13;100.00;103135.31;6254526;28;20052;-69
2023/12/17 07:13:51;;;;;;;7.10;4.22;;;;;;;9.13;100.00;103134.44;6253971;28;20053;-71
2023/12/17 07:16:52;;;;;;;7.70;4.70;;;;;;;9.10;100.00;103131.81;6254364;28;20050;-70
2023/12/17 07:19:54;;;;;;;10.02;4.25;;;;;;;9.10;100.00;103143.19;6246485;28;20466;-70
2023/12/17 07:22:55;;;;;;;6.72;3.85;;;;;;;9.06;100.00;103138.84;6250941;28;20056;-70
2023/12/17 07:25:57;;;;;;;8.43;4.53;;;;;;;9.06;100.00;103136.22;6245144;28;20058;-71
2023/12/17 07:28:59;;;;;;;12.45;4.43;;;;;;;9.06;100.00;103135.34;6252780;28;20049;-74
2023/12/17 07:32:01;;;;;;;9.63;5.13;;;;;;;9.01;100.00;103131.91;6246379;28;20056;-68
2023/12/17 07:35:03;;;;;;;9.52;4.38;;;;;;;9.07;100.00;103144.97;6245325;28;20057;-69
2023/12/17 07:38:04;;;;;;;12.43;4.57;;;;;;;9.05;100.00;103144.13;6250427;28;20135;-69
2023/12/17 07:41:06;;;;;;;11.77;4.85;;;;;;;9.05;100.00;103142.34;6245581;28;20426;-69
2023/12/17 07:44:09;;;;;;;8.30;4.55;;;;;;;9.07;100.00;103145.81;6244139;28;20068;-69
2023/12/17 07:47:10;;;;;;;7.65;4.50;;;;;;;9.02;100.00;103152.00;6253819;28;20049;-69
2023/12/17 07:50:12;;;;;;;12.70;5.35;;;;;;;9.14;100.00;103144.91;6245397;28;20136;-70
2023/12/17 07:53:14;;;;;;;17.45;6.60;;;;;;;9.14;100.00;103141.41;6230437;28;20053;-70
2023/12/17 07:56:15;;;;;;;11.13;4.88;;;;;;;9.23;100.00;103138.72;6243479;28;20056;-69
2023/12/17 07:59:18;;;;;;;13.90;5.35;;;;;;;9.18;100.00;103132.63;6247766;28;20046;-70
2023/12/17 08:02:19;;;;;;;11.98;5.60;;;;;;;9.15;100.00;103143.16;6244574;28;20084;-70
2023/12/17 08:05:21;;;;;;;11.32;5.93;;;;;;;9.21;100.00;103126.47;6247414;28;20365;-69
2023/12/17 08:08:22;;;;;;;11.43;5.78;;;;;;;9.23;100.00;103149.19;6243737;28;20054;-77
2023/12/17 08:11:24;;;;;;;14.07;5.50;;;;;;;9.23;100.00;103140.47;6241995;28;20096;-70
2023/12/17 08:14:28;;;;;;;10.82;5.80;;;;;;;9.27;100.00;103142.19;6244528;28;20140;-70
2023/12/17 08:17:29;;;;;;;15.13;6.80;;;;;;;9.17;100.00;103140.50;6253142;28;20452;-70
2023/12/17 08:20:30;;;;;;;11.73;5.55;;;;;;;9.15;100.00;103141.38;6252333;28;20053;-70
2023/12/17 08:23:32;;;;;;;12.50;5.55;;;;;;;9.12;100.00;103132.66;6252454;28;20046;-70
2023/12/17 08:26:33;;;;;;;14.05;6.38;;;;;;;9.13;100.00;103124.81;6252761;28;20082;-70
2023/12/17 08:29:35;;;;;;;18.02;7.50;;;;;;;9.12;100.00;103130.91;6252921;28;20053;-69
2023/12/17 08:32:37;;;;;;;13.20;6.32;;;;;;;9.17;100.00;103137.88;6252518;28;20049;-70
2023/12/17 08:35:38;;;;;;;13.02;6.65;;;;;;;9.20;100.00;103146.59;6251937;28;20054;-72
2023/12/17 08:38:40;;;;;;;14.68;7.18;;;;;;;9.19;100.00;103128.25;6252491;28;20132;-69
2023/12/17 08:41:41;;;;;;;15.38;6.43;;;;;;;9.25;100.00;103136.06;6251802;28;20350;-70
2023/12/17 08:44:44;;;;;;;19.77;7.57;;;;;;;9.18;100.00;103140.50;6251724;28;20049;-70
2023/12/17 08:47:45;;;;;;;14.45;6.47;;;;;;;9.22;100.00;103130.81;6252518;28;20057;-72
2023/12/17 08:50:46;;;;;;;16.00;7.05;;;;;;;9.22;100.00;103120.34;6252263;28;20041;-70
2023/12/17 08:53:47;;;;;;;15.25;7.38;;;;;;;9.24;100.00;103118.59;6251714;28;20076;-70
2023/12/17 08:56:49;;;;;;;13.48;6.78;;;;;;;9.19;100.00;103125.63;6251172;28;20449;-69
2023/12/17 08:59:51;;;;;;;18.45;7.32;;;;;;;9.25;100.00;103110.69;6252082;28;20049;-69
2023/12/17 09:02:53;;;;;;;13.60;6.97;;;;;;;9.27;100.00;103111.56;6251658;28;20050;-70
2023/12/17 09:05:55;;;;;;;14.27;6.43;;;;;;;9.25;100.00;103102.81;6251020;28;20106;-70
2023/12/17 09:08:56;;;;;;;13.43;6.28;;;;;;;9.27;100.00;103101.06;6251941;28;20053;-70
2023/12/17 09:11:57;;;;;;;14.40;6.60;;;;;;;9.22;100.00;103112.47;6251449;28;20434;-70
2023/12/17 09:15:00;;;;;;;14.10;7.00;;;;;;;9.26;100.00;103108.94;6251042;28;20469;-69
2023/12/17 09:18:01;;;;;;;13.85;6.63;;;;;;;9.27;100.00;103108.06;6251512;28;20323;-69
2023/12/17 09:21:03;;;;;;;16.80;6.78;;;;;;;9.25;100.00;103108.06;6251982;28;20048;-70
2023/12/17 09:24:05;;;;;;;16.30;6.47;;;;;;;9.31;100.00;103109.75;6250771;28;20061;-69
2023/12/17 09:27:07;;;;;;;13.35;6.88;;;;;;;9.35;100.00;103114.09;6251381;28;20354;-70
2023/12/17 09:30:11;;;;;;;15.23;7.05;;;;;;;9.38;100.00;103100.94;6251213;28;20349;-70
2023/12/17 09:33:12;;;;;;;14.88;6.95;;;;;;;9.32;100.00;103096.63;6250959;28;20052;-71
2023/12/17 09:36:15;;;;;;;16.10;6.00;;;;;;;9.39;100.00;103105.28;6250586;28;20078;-68
2023/12/17 09:39:17;;;;;;;15.32;5.85;;;;;;;9.33;100.00;103094.88;6251257;28;20045;-70
2023/12/17 09:42:20;;;;;;;10.55;5.40;;;;;;;9.34;100.00;103092.22;6251059;28;20056;-69
2023/12/17 09:45:23;;;;;;;15.45;6.57;;;;;;;9.42;100.00;103094.78;6250438;28;20099;-69
2023/12/17 09:48:24;;;;;;;17.23;6.53;;;;;;;9.36;100.00;103093.09;6251189;28;20139;-70
2023/12/17 09:51:27;;;;;;;14.27;6.70;;;;;;;9.34;100.00;103086.13;6250946;28;20053;-72
2023/12/17 09:54:28;;;;;;;15.23;6.22;;;;;;;9.42;100.00;103096.53;6250624;28;20509;-69
2023/12/17 09:57:29;;;;;;;11.50;4.95;;;;;;;9.47;100.00;103092.97;6250991;28;20053;-70
2023/12/17 10:00:32;;;;;;;11.02;5.65;;;;;;;9.39;100.00;103084.31;6250892;28;20053;-69
2023/12/17 10:03:34;;;;;;;15.45;6.72;;;;;;;9.33;100.00;103087.00;6249778;28;20052;-70
2023/12/17 10:06:35;;;;;;;15.43;7.47;;;;;;;9.29;100.00;103095.78;6250358;28;20186;-69
2023/12/17 10:09:37;;;;;;;16.33;6.50;;;;;;;9.31;100.00;103102.78;6250878;28;20052;-70
2023/12/17 10:12:38;;;;;;;15.25;7.63;;;;;;;9.32;100.00;103098.38;6250214;28;20049;-70
2023/12/17 10:15:42;;;;;;;16.83;7.60;;;;;;;9.24;100.00;103087.97;6250058;28;20049;-68
2023/12/17 10:18:47;;;;;;;21.95;7.57;;;;;;;9.17;100.00;103085.41;6250738;28;20053;-70
2023/12/17 10:21:49;;;;;;;17.02;8.18;;;;;;;9.29;100.00;103087.91;6250145;28;20339;-69
2023/12/17 10:24:50;;;;;;;18.17;8.65;;;;;;;9.19;100.00;103092.41;6249874;28;20045;-68
2023/12/17 10:27:56;;;;;;;17.02;8.27;;;;;;;9.21;100.00;103081.88;6250361;28;20045;-69
2023/12/17 10:30:59;;;;;;;19.35;7.70;;;;;;;9.19;100.00;103084.53;6250412;28;20049;-70
2023/12/17 10:34:09;;;;;;;18.35;8.93;;;;;;;9.15;100.00;103078.44;6249780;28;20056;-69
2023/12/17 10:37:11;;;;;;;25.80;9.52;;;;;;;9.20;100.00;103073.13;6250033;28;20063;-69
2023/12/17 10:40:13;;;;;;;22.38;9.23;;;;;;;9.12;100.00;103078.44;6250472;28;20050;-69
2023/12/17 10:43:17;;;;;;;20.38;8.98;;;;;;;9.21;100.00;103079.25;6249713;28;20053;-69
2023/12/17 10:46:21;;;;;;;21.08;9.65;;;;;;;9.07;100.00;103096.00;6249874;28;20056;-68
2023/12/17 10:49:22;;;;;;;23.15;9.60;;;;;;;9.19;100.00;103083.66;6250359;28;20426;-69
2023/12/17 10:52:24;;;;;;;20.35;9.60;;;;;;;9.17;100.00;103085.41;6249999;28;20068;-70
2023/12/17 10:55:25;;;;;;;19.67;9.27;;;;;;;9.13;100.00;103101.19;6249711;28;20060;-69
2023/12/17 10:58:27;;;;;;;20.20;8.93;;;;;;;9.09;100.00;103081.13;6250116;28;20086;-71
2023/12/17 11:01:31;;;;;;;19.08;7.35;;;;;;;9.21;100.00;103081.88;6249847;28;20052;-70
2023/12/17 11:04:32;;;;;;;20.15;8.45;;;;;;;9.16;100.00;103079.28;6249415;28;20053;-69
2023/12/17 11:07:34;;;;;;;16.75;8.80;;;;;;;9.14;100.00;103087.19;6249895;28;20060;-69
2023/12/17 11:10:38;;;;;;;17.98;8.38;;;;;;;9.15;100.00;103077.56;6249831;28;20076;-70
2023/12/17 11:13:40;;;;;;;18.10;8.98;;;;;;;9.22;100.00;103079.25;6249641;28;20084;-70
2023/12/17 11:16:43;;;;;;;17.50;8.82;;;;;;;9.19;100.00;103049.56;6249768;28;20740;-70
2023/12/17 11:19:55;;;;;;;18.08;9.05;;;;;;;9.25;100.00;103054.72;6252736;28;20053;-70
2023/12/17 11:22:56;;;;;;;17.25;8.73;;;;;;;9.29;100.00;103057.28;6253974;28;20049;-70
2023/12/17 11:25:59;;;;;;;21.42;9.65;;;;;;;9.30;100.00;103053.78;6253708;28;20351;-70
2023/12/17 11:29:00;;;;;;;19.27;9.32;;;;;;;9.36;100.00;103048.47;6254230;28;20067;-71
2023/12/17 11:32:03;;;;;;;21.90;10.52;;;;;;;9.41;100.00;103035.31;6254040;28;20041;-70
2023/12/17 11:35:05;;;;;;;21.50;10.85;;;;;;;9.44;100.00;103029.13;6253682;28;20057;-72
2023/12/17 11:38:07;;;;;;;19.20;10.25;;;;;;;9.48;100.00;103026.47;6254155;28;20053;-71
2023/12/17 11:41:08;;;;;;;20.75;8.98;;;;;;;9.41;100.00;103024.81;6253670;28;20358;-71
2023/12/17 11:44:09;;;;;;;21.80;9.50;;;;;;;9.33;100.00;103021.41;6253097;28;20041;-70
2023/12/17 11:47:12;;;;;;;25.63;11.15;;;;;;;9.28;100.00;103029.31;6253884;28;20049;-70
2023/12/17 11:50:14;;;;;;;19.88;10.05;;;;;;;9.28;100.00;103010.97;6253775;28;20054;-70
2023/12/17 11:53:17;;;;;;;21.15;9.60;;;;;;;9.25;100.00;103008.34;6253660;28;20060;-70
2023/12/17 11:56:28;;;;;;;20.08;9.85;;;;;;;9.29;100.00;103022.31;6253091;28;20361;-70
2023/12/17 11:59:32;;;;;;;18.77;8.80;;;;;;;9.31;100.00;103012.66;6253755;28;20046;-68
2023/12/17 12:02:35;;;;;;;18.00;8.60;;;;;;;9.26;100.00;103009.22;6253173;28;20052;-69
2023/12/17 12:05:36;;;;;;;23.05;10.15;;;;;;;9.36;100.00;103000.38;6253117;28;20049;-71
2023/12/17 12:08:40;;;;;;;18.75;9.52;;;;;;;9.37;100.00;103008.22;6253099;28;20050;-69
2023/12/17 12:11:41;;;;;;;19.52;9.10;;;;;;;9.43;100.00;103002.03;6253187;28;20045;-69
2023/12/17 12:14:45;;;;;;;17.73;8.82;;;;;;;9.45;100.00;103009.88;6252240;28;20054;-70
2023/12/17 12:17:47;;;;;;;17.45;8.93;;;;;;;9.38;100.00;102996.84;6252971;28;20518;-70
2023/12/17 12:20:50;;;;;;;16.63;8.68;;;;;;;9.38;100.00;102988.09;6253108;28;20053;-70
2023/12/17 12:23:52;;;;;;;17.42;8.55;;;;;;;9.39;100.00;102992.44;6252070;28;20056;-69
2023/12/17 12:26:54;;;;;;;16.35;8.65;;;;;;;9.46;100.00;102985.38;6253101;28;20136;-69
2023/12/17 12:29:56;;;;;;;18.65;8.55;;;;;;;9.34;100.00;102999.50;6252776;28;20049;-70
2023/12/17 12:33:08;;;;;;;17.67;8.63;;;;;;;9.37;100.00;102996.88;6252706;28;20460;-69
2023/12/17 12:36:13;;;;;;;14.23;7.90;;;;;;;9.26;100.00;103006.59;6251979;28;20140;-69
2023/12/17 12:39:16;;;;;;;13.07;7.07;;;;;;;9.23;100.00;102994.41;6253002;28;20046;-70
2023/12/17 12:42:17;;;;;;;14.55;8.35;;;;;;;9.18;100.00;102996.22;6252167;28;20042;-71
2023/12/17 12:45:19;;;;;;;15.05;7.90;;;;;;;9.15;100.00;102997.09;6252011;28;20058;-69
2023/12/17 12:48:23;;;;;;;10.57;6.55;;;;;;;9.10;100.00;102988.44;6252471;28;20461;-71
2023/12/17 12:51:26;;;;;;;12.98;6.57;;;;;;;9.09;100.00;102980.59;6252223;28;20052;-69
2023/12/17 12:54:27;;;;;;;12.10;6.85;;;;;;;9.08;100.00;102990.22;6251530;28;20041;-70
2023/12/17 12:57:28;;;;;;;14.60;7.70;;;;;;;8.90;100.00;102982.50;6252366;28;20061;-70
2023/12/17 13:00:30;;;;;;;15.00;7.45;;;;;;;9.02;100.00;102976.28;6252404;28;20053;-69
2023/12/17 13:03:32;;;;;;;12.32;6.90;;;;;;;9.04;100.00;102975.38;6251429;28;20042;-69
2023/12/17 13:06:34;;;;;;;14.48;7.47;;;;;;;8.96;100.00;102984.22;6252216;28;20073;-69
2023/12/17 13:09:35;;;;;;;12.80;6.97;;;;;;;9.01;100.00;102974.56;6251783;28;20050;-69
2023/12/17 13:12:36;;;;;;;10.88;5.95;;;;;;;8.95;100.00;102978.13;6251627;28;20152;-70
2023/12/17 13:15:38;;;;;;;13.25;6.93;;;;;;;8.99;100.00;102969.28;6250918;28;20335;-69
2023/12/17 13:18:41;;;;;;;14.25;7.25;;;;;;;8.97;100.00;102981.56;6251436;28;20438;-69
2023/12/17 13:21:42;;;;;;;12.90;6.75;;;;;;;8.85;100.00;102979.94;6251036;28;20061;-69
2023/12/17 13:24:43;;;;;;;13.18;7.32;;;;;;;8.88;100.00;102968.56;6251144;28;20056;-70
2023/12/17 13:27:45;;;;;;;17.48;8.32;;;;;;;8.90;100.00;102972.03;6251072;28;20449;-70
2023/12/17 13:30:47;;;;;;;12.85;6.65;;;;;;;8.83;100.00;102962.50;6251411;28;20071;-69
2023/12/17 13:33:49;;;;;;;17.38;8.00;;;;;;;8.79;100.00;102966.03;6250617;28;20049;-70
2023/12/17 13:36:51;;;;;;;13.75;7.30;;;;;;;8.80;100.00;102952.03;6250899;28;20053;-70
2023/12/17 13:39:52;;;;;;;13.10;7.40;;;;;;;8.73;100.00;102948.63;6251046;28;20049;-70
2023/12/17 13:42:54;;;;;;;19.42;8.73;;;;;;;8.73;100.00;102947.75;6250064;28;20451;-70
2023/12/17 13:45:56;;;;;;;15.45;8.57;;;;;;;8.70;100.00;102940.78;6250398;28;20057;-70
2023/12/17 13:48:59;;;;;;;15.75;8.52;;;;;;;8.76;100.00;102938.09;6251074;28;20045;-71
2023/12/17 13:52:00;;;;;;;14.43;7.60;;;;;;;8.75;100.00;102938.09;6250986;28;20057;-71
2023/12/17 13:55:02;;;;;;;17.25;7.82;;;;;;;8.70;100.00;102934.66;6250336;28;20049;-71